Terminal Aerodrome Forecast
Issued by NWS

Home | Current Version | Previous Version | Text Only | Print | Product List | Glossary On
Versions: 1 2 3 4 5 6 7 8 9 10 11 12 13 14 15 16 17 18 19 20
000
FTUS41 KBGM 262341
TAFRME
TAF
KRME 262341Z 2700/2724 VRB04KT P6SM SKC
     FM271400 14010G18KT P6SM FEW150
     FM271900 13012G22KT P6SM SCT040=

USA.gov is the U.S. government's official web portal to all federal, state and local government web resources and services.